sensor_id;sensor_type;location;lat;lon;timestamp;P1;durP1;ratioP1;P2;durP2;ratioP2
62951;SDS011;52163;52.212;-1.002;2023-02-04T00:01:58;3.10;;;1.50;;
62951;SDS011;52163;52.212;-1.002;2023-02-04T00:04:23;4.40;;;1.80;;
62951;SDS011;52163;52.212;-1.002;2023-02-04T00:06:48;4.20;;;1.10;;
62951;SDS011;52163;52.212;-1.002;2023-02-04T00:09:14;2.40;;;0.90;;
62951;SDS011;52163;52.212;-1.002;2023-02-04T00:11:40;2.60;;;0.80;;
62951;SDS011;52163;52.212;-1.002;2023-02-04T00:14:06;1.40;;;0.80;;
62951;SDS011;52163;52.212;-1.002;2023-02-04T00:16:32;3.20;;;0.90;;
62951;SDS011;52163;52.212;-1.002;2023-02-04T00:18:57;1.40;;;0.90;;
62951;SDS011;52163;52.212;-1.002;2023-02-04T00:21:23;2.00;;;0.90;;
62951;SDS011;52163;52.212;-1.002;2023-02-04T00:23:48;1.90;;;1.20;;
62951;SDS011;52163;52.212;-1.002;2023-02-04T00:26:15;2.60;;;1.20;;
62951;SDS011;52163;52.212;-1.002;2023-02-04T00:28:41;4.10;;;1.10;;
62951;SDS011;52163;52.212;-1.002;2023-02-04T00:31:06;2.20;;;0.90;;
62951;SDS011;52163;52.212;-1.002;2023-02-04T00:33:31;1.90;;;1.00;;
62951;SDS011;52163;52.212;-1.002;2023-02-04T00:35:57;3.30;;;1.40;;
62951;SDS011;52163;52.212;-1.002;2023-02-04T00:38:22;3.80;;;1.60;;
62951;SDS011;52163;52.212;-1.002;2023-02-04T00:40:47;2.70;;;1.00;;
62951;SDS011;52163;52.212;-1.002;2023-02-04T00:43:13;1.30;;;0.70;;
62951;SDS011;52163;52.212;-1.002;2023-02-04T00:45:38;1.90;;;0.80;;
62951;SDS011;52163;52.212;-1.002;2023-02-04T00:48:04;2.20;;;0.90;;
62951;SDS011;52163;52.212;-1.002;2023-02-04T00:50:30;1.70;;;0.90;;
62951;SDS011;52163;52.212;-1.002;2023-02-04T00:52:55;1.70;;;0.70;;
62951;SDS011;52163;52.212;-1.002;2023-02-04T00:55:21;0.70;;;0.50;;
62951;SDS011;52163;52.212;-1.002;2023-02-04T00:57:46;1.90;;;0.90;;
62951;SDS011;52163;52.212;-1.002;2023-02-04T01:00:12;1.90;;;1.10;;
62951;SDS011;52163;52.212;-1.002;2023-02-04T01:02:39;2.10;;;0.80;;
62951;SDS011;52163;52.212;-1.002;2023-02-04T01:05:07;1.50;;;0.60;;
62951;SDS011;52163;52.212;-1.002;2023-02-04T01:07:34;1.60;;;0.70;;
62951;SDS011;52163;52.212;-1.002;2023-02-04T01:10:00;2.50;;;0.80;;
62951;SDS011;52163;52.212;-1.002;2023-02-04T01:12:26;1.40;;;0.60;;
62951;SDS011;52163;52.212;-1.002;2023-02-04T01:14:53;1.30;;;0.60;;
62951;SDS011;52163;52.212;-1.002;2023-02-04T01:17:19;0.80;;;0.60;;
62951;SDS011;52163;52.212;-1.002;2023-02-04T01:19:45;2.10;;;0.80;;
62951;SDS011;52163;52.212;-1.002;2023-02-04T01:22:11;1.30;;;0.60;;
62951;SDS011;52163;52.212;-1.002;2023-02-04T01:24:37;1.80;;;0.60;;
62951;SDS011;52163;52.212;-1.002;2023-02-04T01:27:03;3.10;;;0.90;;
62951;SDS011;52163;52.212;-1.002;2023-02-04T01:29:28;1.70;;;0.90;;
62951;SDS011;52163;52.212;-1.002;2023-02-04T01:31:53;3.60;;;1.00;;
62951;SDS011;52163;52.212;-1.002;2023-02-04T01:34:19;1.70;;;0.60;;
62951;SDS011;52163;52.212;-1.002;2023-02-04T01:36:44;2.20;;;0.70;;
62951;SDS011;52163;52.212;-1.002;2023-02-04T01:39:10;1.10;;;0.70;;
62951;SDS011;52163;52.212;-1.002;2023-02-04T01:41:35;2.30;;;0.70;;
62951;SDS011;52163;52.212;-1.002;2023-02-04T01:44:00;1.40;;;0.70;;
62951;SDS011;52163;52.212;-1.002;2023-02-04T01:46:26;0.90;;;0.50;;
62951;SDS011;52163;52.212;-1.002;2023-02-04T01:48:52;1.40;;;0.60;;
62951;SDS011;52163;52.212;-1.002;2023-02-04T01:51:19;1.20;;;0.60;;
62951;SDS011;52163;52.212;-1.002;2023-02-04T01:53:52;3.10;;;0.80;;
62951;SDS011;52163;52.212;-1.002;2023-02-04T01:56:20;1.40;;;0.80;;
62951;SDS011;52163;52.212;-1.002;2023-02-04T01:58:47;1.10;;;0.70;;
62951;SDS011;52163;52.212;-1.002;2023-02-04T02:03:59;1.30;;;0.60;;
62951;SDS011;52163;52.212;-1.002;2023-02-04T02:06:25;1.30;;;0.50;;
62951;SDS011;52163;52.212;-1.002;2023-02-04T02:08:51;0.80;;;0.50;;
62951;SDS011;52163;52.212;-1.002;2023-02-04T02:11:16;2.00;;;0.40;;
62951;SDS011;52163;52.212;-1.002;2023-02-04T02:13:42;0.70;;;0.50;;
62951;SDS011;52163;52.212;-1.002;2023-02-04T02:16:07;0.60;;;0.40;;
62951;SDS011;52163;52.212;-1.002;2023-02-04T02:18:33;1.10;;;0.50;;
62951;SDS011;52163;52.212;-1.002;2023-02-04T02:21:01;1.30;;;0.60;;
62951;SDS011;52163;52.212;-1.002;2023-02-04T02:23:46;1.20;;;0.70;;
62951;SDS011;52163;52.212;-1.002;2023-02-04T02:28:40;1.00;;;0.60;;
62951;SDS011;52163;52.212;-1.002;2023-02-04T02:31:06;1.30;;;0.60;;
62951;SDS011;52163;52.212;-1.002;2023-02-04T02:33:32;1.00;;;0.50;;
62951;SDS011;52163;52.212;-1.002;2023-02-04T02:35:59;2.20;;;0.60;;
62951;SDS011;52163;52.212;-1.002;2023-02-04T02:38:25;1.00;;;0.50;;
62951;SDS011;52163;52.212;-1.002;2023-02-04T02:40:50;1.20;;;0.60;;
62951;SDS011;52163;52.212;-1.002;2023-02-04T02:43:17;2.20;;;0.80;;
62951;SDS011;52163;52.212;-1.002;2023-02-04T02:45:45;1.30;;;0.70;;
62951;SDS011;52163;52.212;-1.002;2023-02-04T02:48:11;2.50;;;0.70;;
62951;SDS011;52163;52.212;-1.002;2023-02-04T02:50:37;1.30;;;0.60;;
62951;SDS011;52163;52.212;-1.002;2023-02-04T02:53:04;1.30;;;0.60;;
62951;SDS011;52163;52.212;-1.002;2023-02-04T02:55:35;1.50;;;0.80;;
62951;SDS011;52163;52.212;-1.002;2023-02-04T02:58:00;2.00;;;0.70;;
62951;SDS011;52163;52.212;-1.002;2023-02-04T03:00:26;1.10;;;0.60;;
62951;SDS011;52163;52.212;-1.002;2023-02-04T03:05:19;1.70;;;0.80;;
62951;SDS011;52163;52.212;-1.002;2023-02-04T03:07:44;2.60;;;0.80;;
62951;SDS011;52163;52.212;-1.002;2023-02-04T03:10:10;2.00;;;0.60;;
62951;SDS011;52163;52.212;-1.002;2023-02-04T03:12:36;1.80;;;0.90;;
62951;SDS011;52163;52.212;-1.002;2023-02-04T03:15:02;1.10;;;0.70;;
62951;SDS011;52163;52.212;-1.002;2023-02-04T03:17:28;1.30;;;0.80;;
62951;SDS011;52163;52.212;-1.002;2023-02-04T03:19:54;1.80;;;0.80;;
62951;SDS011;52163;52.212;-1.002;2023-02-04T03:22:20;3.30;;;0.80;;
62951;SDS011;52163;52.212;-1.002;2023-02-04T03:24:45;1.40;;;0.80;;
62951;SDS011;52163;52.212;-1.002;2023-02-04T03:27:11;1.80;;;1.00;;
62951;SDS011;52163;52.212;-1.002;2023-02-04T03:29:42;1.60;;;0.80;;
62951;SDS011;52163;52.212;-1.002;2023-02-04T03:32:09;1.60;;;0.90;;
62951;SDS011;52163;52.212;-1.002;2023-02-04T03:34:35;2.20;;;0.80;;
62951;SDS011;52163;52.212;-1.002;2023-02-04T03:37:00;2.20;;;0.70;;
62951;SDS011;52163;52.212;-1.002;2023-02-04T03:39:26;1.40;;;0.90;;
62951;SDS011;52163;52.212;-1.002;2023-02-04T03:41:51;2.10;;;0.80;;
62951;SDS011;52163;52.212;-1.002;2023-02-04T03:44:16;1.90;;;0.90;;
62951;SDS011;52163;52.212;-1.002;2023-02-04T03:46:42;1.00;;;0.70;;
62951;SDS011;52163;52.212;-1.002;2023-02-04T03:49:08;2.40;;;0.80;;
62951;SDS011;52163;52.212;-1.002;2023-02-04T03:51:33;1.70;;;0.90;;
62951;SDS011;52163;52.212;-1.002;2023-02-04T03:53:58;2.10;;;0.70;;
62951;SDS011;52163;52.212;-1.002;2023-02-04T03:56:24;3.60;;;0.90;;
62951;SDS011;52163;52.212;-1.002;2023-02-04T03:58:50;1.70;;;0.90;;
62951;SDS011;52163;52.212;-1.002;2023-02-04T04:01:15;1.90;;;0.70;;
62951;SDS011;52163;52.212;-1.002;2023-02-04T04:03:40;1.40;;;0.90;;
62951;SDS011;52163;52.212;-1.002;2023-02-04T04:06:06;2.90;;;0.90;;
62951;SDS011;52163;52.212;-1.002;2023-02-04T04:08:34;1.20;;;0.70;;
62951;SDS011;52163;52.212;-1.002;2023-02-04T04:10:59;0.60;;;0.60;;
62951;SDS011;52163;52.212;-1.002;2023-02-04T04:13:25;1.00;;;0.60;;
62951;SDS011;52163;52.212;-1.002;2023-02-04T04:15:50;3.10;;;1.20;;
62951;SDS011;52163;52.212;-1.002;2023-02-04T04:18:15;1.90;;;1.00;;
62951;SDS011;52163;52.212;-1.002;2023-02-04T04:20:41;1.90;;;1.00;;
62951;SDS011;52163;52.212;-1.002;2023-02-04T04:23:06;1.80;;;1.10;;
62951;SDS011;52163;52.212;-1.002;2023-02-04T04:25:32;2.30;;;1.00;;
62951;SDS011;52163;52.212;-1.002;2023-02-04T04:27:57;2.40;;;1.10;;
62951;SDS011;52163;52.212;-1.002;2023-02-04T04:30:22;3.00;;;1.10;;
62951;SDS011;52163;52.212;-1.002;2023-02-04T04:32:48;2.70;;;1.00;;
62951;SDS011;52163;52.212;-1.002;2023-02-04T04:35:13;2.30;;;1.10;;
62951;SDS011;52163;52.212;-1.002;2023-02-04T04:37:39;1.90;;;1.10;;
62951;SDS011;52163;52.212;-1.002;2023-02-04T04:40:04;2.40;;;1.30;;
62951;SDS011;52163;52.212;-1.002;2023-02-04T04:42:30;2.40;;;1.30;;
62951;SDS011;52163;52.212;-1.002;2023-02-04T04:44:56;2.90;;;1.50;;
62951;SDS011;52163;52.212;-1.002;2023-02-04T04:47:21;2.10;;;1.20;;
62951;SDS011;52163;52.212;-1.002;2023-02-04T04:49:47;3.50;;;1.60;;
62951;SDS011;52163;52.212;-1.002;2023-02-04T04:52:12;2.30;;;1.30;;
62951;SDS011;52163;52.212;-1.002;2023-02-04T04:54:37;2.60;;;1.60;;
62951;SDS011;52163;52.212;-1.002;2023-02-04T04:57:03;3.10;;;1.60;;
62951;SDS011;52163;52.212;-1.002;2023-02-04T04:59:28;2.70;;;1.60;;
62951;SDS011;52163;52.212;-1.002;2023-02-04T05:01:53;2.80;;;1.80;;
62951;SDS011;52163;52.212;-1.002;2023-02-04T05:04:19;2.80;;;1.60;;
62951;SDS011;52163;52.212;-1.002;2023-02-04T05:06:44;3.60;;;1.60;;
62951;SDS011;52163;52.212;-1.002;2023-02-04T05:09:10;2.00;;;1.30;;
62951;SDS011;52163;52.212;-1.002;2023-02-04T05:11:35;3.40;;;1.40;;
62951;SDS011;52163;52.212;-1.002;2023-02-04T05:14:01;2.60;;;1.60;;
62951;SDS011;52163;52.212;-1.002;2023-02-04T05:16:26;2.80;;;1.60;;
62951;SDS011;52163;52.212;-1.002;2023-02-04T05:18:51;3.10;;;1.90;;
62951;SDS011;52163;52.212;-1.002;2023-02-04T05:21:17;3.20;;;1.70;;
62951;SDS011;52163;52.212;-1.002;2023-02-04T05:23:42;3.50;;;1.60;;
62951;SDS011;52163;52.212;-1.002;2023-02-04T05:26:07;3.00;;;1.50;;
62951;SDS011;52163;52.212;-1.002;2023-02-04T05:28:33;3.10;;;1.60;;
62951;SDS011;52163;52.212;-1.002;2023-02-04T05:30:58;2.70;;;1.80;;
62951;SDS011;52163;52.212;-1.002;2023-02-04T05:33:24;4.10;;;1.90;;
62951;SDS011;52163;52.212;-1.002;2023-02-04T05:35:49;3.40;;;1.80;;
62951;SDS011;52163;52.212;-1.002;2023-02-04T05:38:15;2.40;;;1.50;;
62951;SDS011;52163;52.212;-1.002;2023-02-04T05:40:40;3.00;;;1.80;;
62951;SDS011;52163;52.212;-1.002;2023-02-04T05:43:05;3.50;;;1.80;;
62951;SDS011;52163;52.212;-1.002;2023-02-04T05:45:31;2.70;;;1.50;;
62951;SDS011;52163;52.212;-1.002;2023-02-04T05:47:56;2.10;;;1.30;;
62951;SDS011;52163;52.212;-1.002;2023-02-04T05:50:21;3.80;;;1.40;;
62951;SDS011;52163;52.212;-1.002;2023-02-04T05:52:47;2.00;;;1.40;;
62951;SDS011;52163;52.212;-1.002;2023-02-04T05:55:12;2.80;;;1.60;;
62951;SDS011;52163;52.212;-1.002;2023-02-04T05:57:38;3.20;;;1.70;;
62951;SDS011;52163;52.212;-1.002;2023-02-04T06:00:04;3.60;;;1.60;;
62951;SDS011;52163;52.212;-1.002;2023-02-04T06:02:30;2.30;;;1.50;;
62951;SDS011;52163;52.212;-1.002;2023-02-04T06:04:55;2.60;;;1.20;;
62951;SDS011;52163;52.212;-1.002;2023-02-04T06:07:21;2.10;;;1.30;;
62951;SDS011;52163;52.212;-1.002;2023-02-04T06:09:46;4.50;;;1.40;;
62951;SDS011;52163;52.212;-1.002;2023-02-04T06:12:11;4.10;;;1.40;;
62951;SDS011;52163;52.212;-1.002;2023-02-04T06:14:37;4.20;;;1.70;;
62951;SDS011;52163;52.212;-1.002;2023-02-04T06:17:02;2.10;;;1.40;;
62951;SDS011;52163;52.212;-1.002;2023-02-04T06:19:28;2.60;;;1.10;;
62951;SDS011;52163;52.212;-1.002;2023-02-04T06:21:53;2.70;;;1.40;;
62951;SDS011;52163;52.212;-1.002;2023-02-04T06:24:18;2.00;;;1.10;;
62951;SDS011;52163;52.212;-1.002;2023-02-04T06:26:44;3.40;;;1.20;;
62951;SDS011;52163;52.212;-1.002;2023-02-04T06:29:09;2.10;;;1.00;;
62951;SDS011;52163;52.212;-1.002;2023-02-04T06:31:35;2.80;;;1.30;;
62951;SDS011;52163;52.212;-1.002;2023-02-04T06:34:02;2.10;;;1.00;;
62951;SDS011;52163;52.212;-1.002;2023-02-04T06:36:28;2.60;;;1.30;;
62951;SDS011;52163;52.212;-1.002;2023-02-04T06:38:53;1.80;;;1.10;;
62951;SDS011;52163;52.212;-1.002;2023-02-04T06:41:18;1.30;;;0.80;;
62951;SDS011;52163;52.212;-1.002;2023-02-04T06:43:44;1.20;;;0.70;;
62951;SDS011;52163;52.212;-1.002;2023-02-04T06:46:09;2.40;;;0.80;;
62951;SDS011;52163;52.212;-1.002;2023-02-04T06:48:35;3.70;;;0.70;;
62951;SDS011;52163;52.212;-1.002;2023-02-04T06:51:00;1.40;;;0.70;;
62951;SDS011;52163;52.212;-1.002;2023-02-04T06:53:25;2.60;;;0.70;;
62951;SDS011;52163;52.212;-1.002;2023-02-04T06:55:51;1.60;;;0.80;;
62951;SDS011;52163;52.212;-1.002;2023-02-04T06:58:17;1.10;;;0.70;;
62951;SDS011;52163;52.212;-1.002;2023-02-04T07:00:42;1.10;;;0.60;;
62951;SDS011;52163;52.212;-1.002;2023-02-04T07:03:08;1.30;;;0.80;;
62951;SDS011;52163;52.212;-1.002;2023-02-04T07:05:33;0.90;;;0.70;;
62951;SDS011;52163;52.212;-1.002;2023-02-04T07:07:59;3.00;;;0.70;;
62951;SDS011;52163;52.212;-1.002;2023-02-04T07:10:24;1.20;;;0.60;;
62951;SDS011;52163;52.212;-1.002;2023-02-04T07:12:50;1.90;;;0.70;;
62951;SDS011;52163;52.212;-1.002;2023-02-04T07:15:15;3.40;;;0.80;;
62951;SDS011;52163;52.212;-1.002;2023-02-04T07:17:41;2.80;;;0.80;;
62951;SDS011;52163;52.212;-1.002;2023-02-04T07:20:07;3.10;;;0.80;;
62951;SDS011;52163;52.212;-1.002;2023-02-04T07:22:34;2.70;;;0.80;;
62951;SDS011;52163;52.212;-1.002;2023-02-04T07:24:59;0.70;;;0.60;;
62951;SDS011;52163;52.212;-1.002;2023-02-04T07:27:25;2.90;;;0.80;;
62951;SDS011;52163;52.212;-1.002;2023-02-04T07:29:50;1.80;;;0.70;;
62951;SDS011;52163;52.212;-1.002;2023-02-04T07:32:15;1.30;;;0.60;;
62951;SDS011;52163;52.212;-1.002;2023-02-04T07:34:41;3.40;;;0.70;;
62951;SDS011;52163;52.212;-1.002;2023-02-04T07:37:06;2.50;;;0.80;;
62951;SDS011;52163;52.212;-1.002;2023-02-04T07:39:31;1.50;;;0.80;;
62951;SDS011;52163;52.212;-1.002;2023-02-04T07:41:57;2.30;;;0.70;;
62951;SDS011;52163;52.212;-1.002;2023-02-04T07:44:22;2.20;;;0.80;;
62951;SDS011;52163;52.212;-1.002;2023-02-04T07:46:47;1.90;;;0.70;;
62951;SDS011;52163;52.212;-1.002;2023-02-04T07:49:13;2.40;;;0.90;;
62951;SDS011;52163;52.212;-1.002;2023-02-04T07:51:38;2.40;;;0.80;;
62951;SDS011;52163;52.212;-1.002;2023-02-04T07:54:04;2.30;;;1.00;;
62951;SDS011;52163;52.212;-1.002;2023-02-04T07:56:29;2.70;;;1.20;;
62951;SDS011;52163;52.212;-1.002;2023-02-04T07:58:54;2.80;;;1.30;;
62951;SDS011;52163;52.212;-1.002;2023-02-04T08:01:20;3.50;;;1.60;;
62951;SDS011;52163;52.212;-1.002;2023-02-04T08:03:45;4.90;;;1.90;;
62951;SDS011;52163;52.212;-1.002;2023-02-04T08:06:10;4.40;;;2.10;;
62951;SDS011;52163;52.212;-1.002;2023-02-04T08:08:36;3.60;;;1.70;;
62951;SDS011;52163;52.212;-1.002;2023-02-04T08:11:04;4.40;;;1.80;;
62951;SDS011;52163;52.212;-1.002;2023-02-04T08:13:30;4.90;;;1.50;;
62951;SDS011;52163;52.212;-1.002;2023-02-04T08:15:55;4.10;;;1.40;;
62951;SDS011;52163;52.212;-1.002;2023-02-04T08:18:20;3.70;;;1.50;;
62951;SDS011;52163;52.212;-1.002;2023-02-04T08:20:46;3.40;;;1.00;;
62951;SDS011;52163;52.212;-1.002;2023-02-04T08:23:11;3.10;;;1.20;;
62951;SDS011;52163;52.212;-1.002;2023-02-04T08:25:37;3.80;;;2.10;;
62951;SDS011;52163;52.212;-1.002;2023-02-04T08:28:02;5.30;;;1.70;;
62951;SDS011;52163;52.212;-1.002;2023-02-04T08:30:28;3.70;;;1.10;;
62951;SDS011;52163;52.212;-1.002;2023-02-04T08:32:54;3.90;;;1.50;;
62951;SDS011;52163;52.212;-1.002;2023-02-04T08:35:19;3.40;;;1.40;;
62951;SDS011;52163;52.212;-1.002;2023-02-04T08:37:44;2.60;;;1.20;;
62951;SDS011;52163;52.212;-1.002;2023-02-04T08:40:10;2.70;;;1.10;;
62951;SDS011;52163;52.212;-1.002;2023-02-04T08:42:36;2.50;;;1.00;;
62951;SDS011;52163;52.212;-1.002;2023-02-04T08:45:02;2.00;;;0.90;;
62951;SDS011;52163;52.212;-1.002;2023-02-04T08:47:28;5.20;;;1.30;;
62951;SDS011;52163;52.212;-1.002;2023-02-04T08:49:53;2.00;;;1.00;;
62951;SDS011;52163;52.212;-1.002;2023-02-04T08:52:18;2.90;;;0.90;;
62951;SDS011;52163;52.212;-1.002;2023-02-04T08:54:44;2.50;;;0.90;;
62951;SDS011;52163;52.212;-1.002;2023-02-04T08:57:09;1.90;;;0.70;;
62951;SDS011;52163;52.212;-1.002;2023-02-04T08:59:35;2.10;;;0.70;;
62951;SDS011;52163;52.212;-1.002;2023-02-04T09:02:00;2.10;;;0.80;;
62951;SDS011;52163;52.212;-1.002;2023-02-04T09:04:27;1.90;;;1.10;;
62951;SDS011;52163;52.212;-1.002;2023-02-04T09:06:53;5.80;;;1.30;;
62951;SDS011;52163;52.212;-1.002;2023-02-04T09:09:18;4.00;;;1.40;;
62951;SDS011;52163;52.212;-1.002;2023-02-04T09:11:44;2.60;;;1.30;;
62951;SDS011;52163;52.212;-1.002;2023-02-04T09:14:10;2.80;;;1.00;;
62951;SDS011;52163;52.212;-1.002;2023-02-04T09:16:35;3.60;;;1.20;;
62951;SDS011;52163;52.212;-1.002;2023-02-04T09:19:01;2.30;;;1.00;;
62951;SDS011;52163;52.212;-1.002;2023-02-04T09:21:27;2.70;;;1.00;;
62951;SDS011;52163;52.212;-1.002;2023-02-04T09:23:53;1.60;;;0.70;;
62951;SDS011;52163;52.212;-1.002;2023-02-04T09:26:19;2.70;;;1.30;;
62951;SDS011;52163;52.212;-1.002;2023-02-04T09:28:44;3.50;;;1.20;;
62951;SDS011;52163;52.212;-1.002;2023-02-04T09:31:11;4.40;;;1.40;;
62951;SDS011;52163;52.212;-1.002;2023-02-04T09:33:38;3.90;;;1.30;;
62951;SDS011;52163;52.212;-1.002;2023-02-04T09:36:04;3.60;;;1.20;;
62951;SDS011;52163;52.212;-1.002;2023-02-04T09:38:31;2.60;;;1.00;;
62951;SDS011;52163;52.212;-1.002;2023-02-04T09:40:57;2.10;;;1.00;;
62951;SDS011;52163;52.212;-1.002;2023-02-04T09:43:30;4.60;;;1.50;;
62951;SDS011;52163;52.212;-1.002;2023-02-04T09:46:03;8.50;;;2.80;;
62951;SDS011;52163;52.212;-1.002;2023-02-04T09:48:29;4.20;;;1.90;;
62951;SDS011;52163;52.212;-1.002;2023-02-04T09:51:02;3.40;;;1.60;;
62951;SDS011;52163;52.212;-1.002;2023-02-04T09:53:29;3.40;;;1.40;;
62951;SDS011;52163;52.212;-1.002;2023-02-04T09:55:56;3.90;;;1.20;;
62951;SDS011;52163;52.212;-1.002;2023-02-04T09:58:22;4.10;;;1.60;;
62951;SDS011;52163;52.212;-1.002;2023-02-04T10:03:42;2.30;;;1.00;;
62951;SDS011;52163;52.212;-1.002;2023-02-04T10:06:12;1.60;;;0.80;;
62951;SDS011;52163;52.212;-1.002;2023-02-04T10:08:39;1.50;;;0.70;;
62951;SDS011;52163;52.212;-1.002;2023-02-04T10:11:06;2.30;;;0.80;;
62951;SDS011;52163;52.212;-1.002;2023-02-04T10:13:38;3.60;;;0.90;;
62951;SDS011;52163;52.212;-1.002;2023-02-04T10:16:18;3.20;;;0.80;;
62951;SDS011;52163;52.212;-1.002;2023-02-04T10:19:06;2.30;;;1.10;;
62951;SDS011;52163;52.212;-1.002;2023-02-04T10:21:40;2.10;;;0.80;;
62951;SDS011;52163;52.212;-1.002;2023-02-04T10:24:11;3.80;;;0.90;;
62951;SDS011;52163;52.212;-1.002;2023-02-04T10:26:40;1.20;;;0.70;;
62951;SDS011;52163;52.212;-1.002;2023-02-04T10:29:07;1.70;;;0.90;;
62951;SDS011;52163;52.212;-1.002;2023-02-04T10:31:38;6.30;;;1.00;;
62951;SDS011;52163;52.212;-1.002;2023-02-04T10:36:46;2.40;;;0.90;;
62951;SDS011;52163;52.212;-1.002;2023-02-04T10:39:40;3.30;;;1.20;;
62951;SDS011;52163;52.212;-1.002;2023-02-04T10:42:06;1.40;;;0.60;;
62951;SDS011;52163;52.212;-1.002;2023-02-04T10:44:32;2.80;;;1.10;;
62951;SDS011;52163;52.212;-1.002;2023-02-04T10:47:12;2.80;;;0.90;;
62951;SDS011;52163;52.212;-1.002;2023-02-04T10:49:49;1.40;;;1.00;;
62951;SDS011;52163;52.212;-1.002;2023-02-04T10:52:40;2.20;;;0.60;;
62951;SDS011;52163;52.212;-1.002;2023-02-04T10:55:09;3.50;;;0.80;;
62951;SDS011;52163;52.212;-1.002;2023-02-04T10:57:39;3.60;;;0.80;;
62951;SDS011;52163;52.212;-1.002;2023-02-04T11:00:14;2.90;;;0.80;;
62951;SDS011;52163;52.212;-1.002;2023-02-04T11:02:59;3.40;;;1.10;;
62951;SDS011;52163;52.212;-1.002;2023-02-04T11:05:30;2.10;;;1.00;;
62951;SDS011;52163;52.212;-1.002;2023-02-04T11:07:56;2.40;;;0.70;;
62951;SDS011;52163;52.212;-1.002;2023-02-04T11:10:23;1.50;;;0.80;;
62951;SDS011;52163;52.212;-1.002;2023-02-04T11:18:04;2.10;;;0.90;;
62951;SDS011;52163;52.212;-1.002;2023-02-04T11:20:32;2.20;;;0.70;;
62951;SDS011;52163;52.212;-1.002;2023-02-04T11:26:00;2.40;;;1.10;;
62951;SDS011;52163;52.212;-1.002;2023-02-04T11:31:22;1.40;;;0.60;;
62951;SDS011;52163;52.212;-1.002;2023-02-04T11:33:50;2.50;;;0.80;;
62951;SDS011;52163;52.212;-1.002;2023-02-04T11:36:26;2.10;;;0.90;;
62951;SDS011;52163;52.212;-1.002;2023-02-04T11:38:52;1.00;;;0.60;;
62951;SDS011;52163;52.212;-1.002;2023-02-04T11:41:27;2.60;;;0.70;;
62951;SDS011;52163;52.212;-1.002;2023-02-04T11:43:55;3.10;;;0.60;;
62951;SDS011;52163;52.212;-1.002;2023-02-04T11:46:22;1.40;;;0.60;;
62951;SDS011;52163;52.212;-1.002;2023-02-04T11:48:57;2.10;;;0.70;;
62951;SDS011;52163;52.212;-1.002;2023-02-04T11:51:30;1.50;;;0.60;;
62951;SDS011;52163;52.212;-1.002;2023-02-04T11:53:57;2.00;;;0.60;;
62951;SDS011;52163;52.212;-1.002;2023-02-04T11:56:22;2.40;;;0.70;;
62951;SDS011;52163;52.212;-1.002;2023-02-04T11:58:54;2.30;;;0.70;;
62951;SDS011;52163;52.212;-1.002;2023-02-04T12:01:28;3.30;;;1.10;;
62951;SDS011;52163;52.212;-1.002;2023-02-04T12:03:56;3.70;;;1.20;;
62951;SDS011;52163;52.212;-1.002;2023-02-04T12:06:35;1.20;;;0.70;;
62951;SDS011;52163;52.212;-1.002;2023-02-04T12:09:19;2.00;;;0.60;;
62951;SDS011;52163;52.212;-1.002;2023-02-04T12:11:51;1.70;;;0.60;;
62951;SDS011;52163;52.212;-1.002;2023-02-04T12:14:31;2.60;;;0.60;;
62951;SDS011;52163;52.212;-1.002;2023-02-04T12:16:59;0.70;;;0.50;;
62951;SDS011;52163;52.212;-1.002;2023-02-04T12:19:25;1.50;;;0.50;;
62951;SDS011;52163;52.212;-1.002;2023-02-04T12:21:51;1.40;;;0.90;;
62951;SDS011;52163;52.212;-1.002;2023-02-04T12:24:17;2.50;;;0.80;;
62951;SDS011;52163;52.212;-1.002;2023-02-04T12:26:42;2.80;;;0.90;;
62951;SDS011;52163;52.212;-1.002;2023-02-04T12:29:08;1.60;;;0.80;;
62951;SDS011;52163;52.212;-1.002;2023-02-04T12:31:33;2.20;;;0.80;;
62951;SDS011;52163;52.212;-1.002;2023-02-04T12:33:59;2.30;;;0.60;;
62951;SDS011;52163;52.212;-1.002;2023-02-04T12:36:25;2.20;;;0.80;;
62951;SDS011;52163;52.212;-1.002;2023-02-04T12:38:52;2.60;;;0.60;;
62951;SDS011;52163;52.212;-1.002;2023-02-04T12:41:18;2.20;;;0.80;;
62951;SDS011;52163;52.212;-1.002;2023-02-04T12:43:44;2.50;;;0.70;;
62951;SDS011;52163;52.212;-1.002;2023-02-04T12:46:10;2.00;;;0.90;;
62951;SDS011;52163;52.212;-1.002;2023-02-04T12:48:35;2.60;;;0.80;;
62951;SDS011;52163;52.212;-1.002;2023-02-04T12:51:05;2.70;;;1.00;;
62951;SDS011;52163;52.212;-1.002;2023-02-04T12:53:31;1.70;;;0.70;;
62951;SDS011;52163;52.212;-1.002;2023-02-04T12:55:56;3.40;;;1.30;;
62951;SDS011;52163;52.212;-1.002;2023-02-04T12:58:22;2.20;;;0.90;;
62951;SDS011;52163;52.212;-1.002;2023-02-04T13:00:47;2.10;;;0.80;;
62951;SDS011;52163;52.212;-1.002;2023-02-04T13:03:13;3.60;;;1.30;;
62951;SDS011;52163;52.212;-1.002;2023-02-04T13:05:38;3.30;;;1.00;;
62951;SDS011;52163;52.212;-1.002;2023-02-04T13:08:03;2.80;;;1.10;;
62951;SDS011;52163;52.212;-1.002;2023-02-04T13:10:29;3.00;;;1.00;;
62951;SDS011;52163;52.212;-1.002;2023-02-04T13:12:55;3.70;;;1.20;;
62951;SDS011;52163;52.212;-1.002;2023-02-04T13:15:20;3.40;;;1.00;;
62951;SDS011;52163;52.212;-1.002;2023-02-04T13:17:45;2.50;;;1.00;;
62951;SDS011;52163;52.212;-1.002;2023-02-04T13:20:12;2.40;;;1.10;;
62951;SDS011;52163;52.212;-1.002;2023-02-04T13:22:37;2.20;;;1.10;;
62951;SDS011;52163;52.212;-1.002;2023-02-04T13:25:03;1.40;;;0.60;;
62951;SDS011;52163;52.212;-1.002;2023-02-04T13:27:29;2.10;;;1.20;;
62951;SDS011;52163;52.212;-1.002;2023-02-04T13:29:56;5.70;;;3.10;;
62951;SDS011;52163;52.212;-1.002;2023-02-04T13:32:22;2.60;;;1.10;;
62951;SDS011;52163;52.212;-1.002;2023-02-04T13:34:47;3.70;;;1.40;;
62951;SDS011;52163;52.212;-1.002;2023-02-04T13:37:13;3.40;;;1.30;;
62951;SDS011;52163;52.212;-1.002;2023-02-04T13:39:38;3.40;;;1.10;;
62951;SDS011;52163;52.212;-1.002;2023-02-04T13:42:03;2.60;;;1.10;;
62951;SDS011;52163;52.212;-1.002;2023-02-04T13:44:29;2.00;;;1.10;;
62951;SDS011;52163;52.212;-1.002;2023-02-04T13:46:54;1.60;;;0.90;;
62951;SDS011;52163;52.212;-1.002;2023-02-04T13:49:19;3.80;;;1.10;;
62951;SDS011;52163;52.212;-1.002;2023-02-04T13:51:45;3.60;;;1.00;;
62951;SDS011;52163;52.212;-1.002;2023-02-04T13:54:11;3.30;;;1.50;;
62951;SDS011;52163;52.212;-1.002;2023-02-04T13:56:37;5.40;;;1.70;;
62951;SDS011;52163;52.212;-1.002;2023-02-04T13:59:02;4.40;;;1.50;;
62951;SDS011;52163;52.212;-1.002;2023-02-04T14:01:28;3.50;;;1.60;;
62951;SDS011;52163;52.212;-1.002;2023-02-04T14:03:53;4.70;;;1.70;;
62951;SDS011;52163;52.212;-1.002;2023-02-04T14:06:19;5.00;;;2.10;;
62951;SDS011;52163;52.212;-1.002;2023-02-04T14:08:46;6.30;;;2.20;;
62951;SDS011;52163;52.212;-1.002;2023-02-04T14:11:12;3.70;;;1.50;;
62951;SDS011;52163;52.212;-1.002;2023-02-04T14:13:37;4.10;;;1.50;;
62951;SDS011;52163;52.212;-1.002;2023-02-04T14:16:03;3.00;;;1.50;;
62951;SDS011;52163;52.212;-1.002;2023-02-04T14:18:29;4.40;;;1.40;;
62951;SDS011;52163;52.212;-1.002;2023-02-04T14:20:55;4.90;;;1.80;;
62951;SDS011;52163;52.212;-1.002;2023-02-04T14:23:20;3.60;;;1.80;;
62951;SDS011;52163;52.212;-1.002;2023-02-04T14:25:46;4.80;;;2.00;;
62951;SDS011;52163;52.212;-1.002;2023-02-04T14:28:11;3.80;;;1.50;;
62951;SDS011;52163;52.212;-1.002;2023-02-04T14:30:36;3.20;;;1.60;;
62951;SDS011;52163;52.212;-1.002;2023-02-04T14:33:02;2.90;;;1.60;;
62951;SDS011;52163;52.212;-1.002;2023-02-04T14:35:28;3.90;;;1.50;;
62951;SDS011;52163;52.212;-1.002;2023-02-04T14:37:53;6.10;;;1.80;;
62951;SDS011;52163;52.212;-1.002;2023-02-04T14:40:19;3.70;;;1.60;;
62951;SDS011;52163;52.212;-1.002;2023-02-04T14:42:46;3.60;;;1.50;;
62951;SDS011;52163;52.212;-1.002;2023-02-04T14:45:12;3.30;;;1.30;;
62951;SDS011;52163;52.212;-1.002;2023-02-04T14:47:38;4.00;;;1.50;;
62951;SDS011;52163;52.212;-1.002;2023-02-04T14:50:05;2.80;;;1.40;;
62951;SDS011;52163;52.212;-1.002;2023-02-04T14:52:35;4.30;;;1.70;;
62951;SDS011;52163;52.212;-1.002;2023-02-04T14:55:01;4.20;;;2.20;;